Time;durP1;ratioP1;P1;durP2;ratioP2;P2;SDS_P1;SDS_P2;PMS_P1;PMS_P2;Temp;Humidity;BMP_temperature;BMP_pressure;BME280_temperature;BME280_humidity;BME280_pressure;Samples;Min_cycle;Max_cycle;Signal;HPM_P1;HPM_P2
2021/12/26 00:01:43;;;;;;;13.32;6.10;;;;;;;0.29;54.36;100955.72;4994305;28;119398;-81
2021/12/26 00:04:13;;;;;;;12.10;6.38;;;;;;;0.33;53.99;100961.13;4970794;28;121624;-82
2021/12/26 00:06:39;;;;;;;12.98;7.28;;;;;;;0.32;54.09;100967.69;4969463;28;122815;-81
2021/12/26 00:09:05;;;;;;;15.80;8.15;;;;;;;0.36;54.18;100971.16;4981280;28;119436;-80
2021/12/26 00:11:30;;;;;;;13.65;8.75;;;;;;;0.25;54.49;100950.28;4985883;28;122133;-80
2021/12/26 00:13:56;;;;;;;10.48;5.85;;;;;;;0.28;54.63;100951.47;4983947;28;122449;-80
2021/12/26 00:16:23;;;;;;;11.32;6.22;;;;;;;0.38;55.06;100964.25;4977722;28;119832;-81
2021/12/26 00:18:49;;;;;;;11.55;6.10;;;;;;;0.32;54.41;100952.25;4993979;28;120835;-81
2021/12/26 00:21:18;;;;;;;12.40;6.03;;;;;;;0.39;54.54;100968.50;4972382;28;120466;-81
2021/12/26 00:23:44;;;;;;;9.80;5.78;;;;;;;0.40;54.71;100971.97;4979650;28;122086;-81
2021/12/26 00:26:10;;;;;;;10.68;5.75;;;;;;;0.40;54.80;100972.75;4980607;28;119856;-81
2021/12/26 00:28:36;;;;;;;13.13;6.10;;;;;;;0.32;54.87;100967.69;4966412;28;120889;-81
2021/12/26 00:31:03;;;;;;;11.95;5.65;;;;;;;0.37;54.39;100968.09;4973995;28;121047;-82
2021/12/26 00:33:29;;;;;;;16.33;7.93;;;;;;;0.36;54.02;100968.47;4994642;28;121184;-81
2021/12/26 00:35:57;;;;;;;23.70;12.50;;;;;;;0.22;54.07;100953.69;4965387;28;121043;-80
2021/12/26 00:38:22;;;;;;;71.47;32.97;;;;;;;0.19;54.07;100945.59;5005298;28;119270;-82
2021/12/26 00:40:48;;;;;;;96.15;43.33;;;;;;;0.26;54.47;100964.56;4978755;28;119579;-80
2021/12/26 00:43:13;;;;;;;43.85;20.38;;;;;;;0.16;54.88;100944.41;4982441;28;119729;-80
2021/12/26 00:45:40;;;;;;;94.15;37.78;;;;;;;0.22;54.86;100972.59;4967189;28;123127;-81
2021/12/26 00:48:07;;;;;;;33.53;15.23;;;;;;;0.19;54.63;100973.34;4982190;28;121492;-81
2021/12/26 00:50:34;;;;;;;21.98;10.07;;;;;;;0.11;54.42;100969.03;4972573;28;119668;-81
2021/12/26 00:53:00;;;;;;;19.92;10.25;;;;;;;0.11;54.15;100970.97;4960122;28;123761;-80
2021/12/26 00:55:27;;;;;;;33.80;15.50;;;;;;;0.15;53.96;100979.84;4966261;28;119735;-80
2021/12/26 00:57:52;;;;;;;63.92;28.55;;;;;;;0.13;54.62;100972.13;4955963;28;122133;-81
2021/12/26 01:00:30;;;;;;;300.58;123.75;;;;;;;0.18;54.84;100976.41;4949396;28;119869;-82
2021/12/26 01:02:59;;;;;;;27.52;13.40;;;;;;;0.12;55.09;100975.22;4939690;28;122182;-81
2021/12/26 01:05:26;;;;;;;30.90;12.88;;;;;;;0.13;55.38;100977.53;4990450;28;122594;-80
2021/12/26 01:10:23;;;;;;;13.20;7.88;;;;;;;0.24;55.35;100993.81;4962997;28;122153;-80
2021/12/26 01:12:50;;;;;;;13.80;8.45;;;;;;;0.24;54.87;100991.91;4975358;28;120392;-81
2021/12/26 01:15:19;;;;;;;13.95;6.95;;;;;;;0.24;54.66;100991.91;4974155;28;120126;-78
2021/12/26 01:17:47;;;;;;;16.70;9.57;;;;;;;0.24;54.42;100996.53;4960409;28;122179;-80
2021/12/26 01:20:25;;;;;;;13.85;6.82;;;;;;;0.20;54.08;100993.00;4961422;28;122238;-82
2021/12/26 01:22:52;;;;;;;10.32;6.47;;;;;;;0.01;54.50;100966.25;4958682;28;122117;-82
2021/12/26 01:25:18;;;;;;;11.95;6.28;;;;;;;0.13;54.78;100990.25;4950614;28;121682;-82
2021/12/26 01:27:47;;;;;;;10.93;6.18;;;;;;;0.07;55.25;100980.94;4964422;28;119595;-83
2021/12/26 01:30:13;;;;;;;13.13;5.85;;;;;;;0.14;55.26;100986.41;4980399;28;122016;-82
2021/12/26 01:32:43;;;;;;;11.98;6.20;;;;;;;0.11;55.31;100987.91;4983841;28;123589;-81
2021/12/26 01:35:28;;;;;;;9.77;5.90;;;;;;;0.14;54.88;100989.88;4983816;28;119288;-82
2021/12/26 01:38:02;;;;;;;9.38;5.97;;;;;;;0.14;55.30;100984.47;4998087;28;121173;-81
2021/12/26 01:40:53;;;;;;;15.18;5.85;;;;;;;0.08;55.48;100974.41;4985647;28;122614;-82
2021/12/26 01:43:36;;;;;;;10.65;5.50;;;;;;;0.23;55.30;100995.72;4991377;28;119431;-81
2021/12/26 01:46:10;;;;;;;11.52;6.90;;;;;;;0.14;55.37;100975.59;4984435;28;119658;-83
2021/12/26 01:48:36;;;;;;;9.95;5.88;;;;;;;0.05;55.12;100962.44;4975192;28;119722;-82
2021/12/26 01:51:03;;;;;;;10.82;5.32;;;;;;;0.16;55.17;100984.09;4963426;28;122070;-80
2021/12/26 01:53:38;;;;;;;9.77;5.50;;;;;;;0.24;55.59;100991.13;4993030;28;123015;-81
2021/12/26 01:56:07;;;;;;;9.85;5.65;;;;;;;0.21;55.51;100991.84;4995149;28;118599;-82
2021/12/26 01:58:35;;;;;;;8.57;4.90;;;;;;;0.25;55.25;100998.84;4997780;28;119284;-81
2021/12/26 02:01:11;;;;;;;11.15;5.57;;;;;;;0.11;55.59;100977.13;4971958;28;122359;-82
2021/12/26 02:03:39;;;;;;;14.77;8.98;;;;;;;0.20;55.51;100995.69;5008116;28;120686;-82
2021/12/26 02:06:06;;;;;;;11.52;5.80;;;;;;;0.19;55.49;100991.44;4981773;28;121906;-83
2021/12/26 02:08:40;;;;;;;10.18;5.93;;;;;;;0.23;55.55;100994.94;4995460;28;119267;-81
2021/12/26 02:11:06;;;;;;;9.20;5.82;;;;;;;0.11;55.46;100976.34;4991321;28;119455;-82
2021/12/26 02:13:37;;;;;;;10.77;5.28;;;;;;;0.12;55.36;100983.28;5007021;28;121952;-80
2021/12/26 02:16:09;;;;;;;7.60;4.90;;;;;;;0.17;55.79;100991.03;4983035;28;119134;-81
2021/12/26 02:18:39;;;;;;;9.38;5.20;;;;;;;0.20;55.79;100991.06;5006070;28;119395;-82
2021/12/26 02:24:21;;;;;;;9.45;4.45;;;;;;;0.22;55.31;100994.16;4991776;28;119301;-81
2021/12/26 02:29:31;;;;;;;11.15;4.82;;;;;;;0.15;55.76;100977.16;5011532;28;121969;-81
2021/12/26 02:31:57;;;;;;;11.55;5.63;;;;;;;0.18;55.56;100990.66;5000747;28;119176;-81
2021/12/26 02:34:23;;;;;;;8.13;4.65;;;;;;;0.26;55.49;100999.63;4957595;28;123461;-79
2021/12/26 02:36:48;;;;;;;10.95;4.65;;;;;;;0.24;54.88;100997.31;4957604;28;119155;-80
2021/12/26 02:39:15;;;;;;;6.72;4.43;;;;;;;0.09;55.28;100970.56;4956371;28;120640;-81
2021/12/26 02:41:42;;;;;;;10.05;5.10;;;;;;;0.12;54.97;100986.00;4973543;28;122709;-81
2021/12/26 02:44:08;;;;;;;10.50;5.07;;;;;;;-0.01;54.86;100967.38;4994392;28;121956;-80
2021/12/26 02:46:37;;;;;;;8.38;4.53;;;;;;;0.04;54.88;100979.00;4988344;28;121790;-82
2021/12/26 02:49:03;;;;;;;8.25;5.03;;;;;;;-0.07;54.94;100971.56;4970787;28;121825;-80
2021/12/26 02:51:31;;;;;;;8.48;5.18;;;;;;;-0.02;55.06;100979.31;4963968;28;119417;-80
2021/12/26 02:53:57;;;;;;;8.10;5.32;;;;;;;-0.04;54.99;100978.91;4979737;28;122731;-81
2021/12/26 02:56:22;;;;;;;8.50;5.57;;;;;;;-0.19;55.03;100969.13;4987044;28;119326;-81
2021/12/26 02:58:48;;;;;;;10.20;5.20;;;;;;;-0.18;54.90;100969.91;4988857;28;121686;-81
2021/12/26 03:01:21;;;;;;;8.75;4.40;;;;;;;-0.19;54.70;100973.75;5015868;28;119307;-82
2021/12/26 03:03:47;;;;;;;9.25;5.28;;;;;;;-0.30;54.64;100968.22;4988718;28;119623;-81
2021/12/26 03:06:40;;;;;;;7.70;4.85;;;;;;;-0.23;55.38;100972.94;4993462;28;122136;-82
2021/12/26 03:09:04;;;;;;;10.35;5.45;;;;;;;-0.24;55.62;100969.44;4986899;28;121880;-83
2021/12/26 03:11:30;;;;;;;7.15;4.47;;;;;;;-0.28;55.17;100965.16;4975717;28;119354;-81
2021/12/26 03:13:56;;;;;;;7.30;4.60;;;;;;;-0.15;54.79;100980.72;4984984;28;123146;-83
2021/12/26 03:16:22;;;;;;;11.32;4.93;;;;;;;-0.27;54.67;100970.19;4998597;28;119187;-82
2021/12/26 03:18:48;;;;;;;8.73;4.50;;;;;;;-0.16;54.65;100978.41;4984506;28;122961;-81
2021/12/26 03:21:14;;;;;;;7.45;4.75;;;;;;;-0.28;54.68;100960.53;4983167;28;123104;-82
2021/12/26 03:23:40;;;;;;;7.45;4.70;;;;;;;-0.34;54.13;100951.25;5002246;28;119729;-82
2021/12/26 03:26:07;;;;;;;7.43;4.18;;;;;;;-0.25;54.17;100965.19;4986406;28;119451;-81
2021/12/26 03:28:33;;;;;;;8.70;4.45;;;;;;;-0.43;53.97;100938.06;4962020;28;122697;-81
2021/12/26 03:31:01;;;;;;;7.70;4.85;;;;;;;-0.32;54.15;100959.75;4981966;28;119261;-82
2021/12/26 03:33:29;;;;;;;7.43;4.82;;;;;;;-0.25;54.23;100967.13;5015241;28;119302;-82
2021/12/26 03:35:55;;;;;;;8.07;4.63;;;;;;;-0.30;53.92;100962.84;4981836;28;119779;-82
2021/12/26 03:38:22;;;;;;;12.07;4.95;;;;;;;-0.23;53.86;100962.94;4986777;28;120439;-82
2021/12/26 03:40:49;;;;;;;11.90;4.85;;;;;;;-0.29;54.06;100964.38;4989206;28;122665;-82
2021/12/26 03:43:15;;;;;;;8.98;4.82;;;;;;;-0.36;53.71;100954.31;4988664;28;119429;-80
2021/12/26 03:45:45;;;;;;;9.55;4.82;;;;;;;-0.31;54.13;100978.25;4952359;28;121044;-81
2021/12/26 03:48:12;;;;;;;7.45;4.70;;;;;;;-0.34;53.71;100978.19;4973568;28;121815;-82
2021/12/26 03:50:40;;;;;;;8.48;4.65;;;;;;;-0.40;53.65;100968.91;5006658;28;121518;-83
2021/12/26 03:53:07;;;;;;;7.97;4.53;;;;;;;-0.37;53.46;100978.94;4970958;28;120615;-81
2021/12/26 03:55:33;;;;;;;8.32;4.80;;;;;;;-0.44;53.29;100971.56;4977657;28;121390;-82
2021/12/26 03:57:58;;;;;;;8.25;5.03;;;;;;;-0.57;52.91;100958.69;4954836;28;120598;-83
2021/12/26 04:00:26;;;;;;;9.27;5.40;;;;;;;-0.64;52.97;100956.69;4981474;28;122280;-80
2021/12/26 04:02:52;;;;;;;7.95;4.55;;;;;;;-0.54;53.08;100974.13;4997628;28;120172;-80
2021/12/26 04:05:18;;;;;;;12.00;6.30;;;;;;;-0.65;52.84;100960.53;4990953;28;120390;-82
2021/12/26 04:07:45;;;;;;;11.45;6.03;;;;;;;-0.63;52.91;100966.31;4974031;28;121337;-82
2021/12/26 04:10:14;;;;;;;8.40;4.93;;;;;;;-0.54;53.23;100980.28;4973502;28;119374;-83
2021/12/26 04:12:45;;;;;;;11.43;5.18;;;;;;;-0.63;53.21;100972.50;4964368;28;121004;-81
2021/12/26 04:15:14;;;;;;;8.77;4.90;;;;;;;-0.63;52.83;100977.09;4975320;28;121701;-81
2021/12/26 04:17:40;;;;;;;9.25;4.95;;;;;;;-0.74;53.21;100968.09;4975231;28;119369;-82
2021/12/26 04:20:07;;;;;;;8.93;5.47;;;;;;;-0.62;52.77;100990.22;4972497;28;121397;-80
2021/12/26 04:22:33;;;;;;;10.70;5.68;;;;;;;-0.69;53.00;100979.34;4974604;28;123290;-81
2021/12/26 04:24:59;;;;;;;10.60;5.35;;;;;;;-0.80;52.58;100974.94;4974148;28;120921;-83
2021/12/26 04:27:25;;;;;;;9.70;5.45;;;;;;;-0.72;52.70;100990.84;4992645;28;121616;-83
2021/12/26 04:29:52;;;;;;;10.45;5.30;;;;;;;-0.74;53.08;100984.25;4988828;28;119557;-82
2021/12/26 04:32:18;;;;;;;12.27;6.78;;;;;;;-0.79;52.87;100985.34;4971961;28;120813;-81
2021/12/26 04:34:44;;;;;;;9.75;5.55;;;;;;;-0.81;52.90;100984.94;4990172;28;121560;-82
2021/12/26 04:37:11;;;;;;;18.50;6.80;;;;;;;-0.86;52.82;100979.88;4968823;28;119749;-81
2021/12/26 04:39:36;;;;;;;10.77;6.03;;;;;;;-0.93;52.82;100974.41;4991091;28;121985;-81
2021/12/26 04:42:04;;;;;;;10.00;6.00;;;;;;;-0.81;52.72;100987.66;4973753;28;119224;-81
2021/12/26 04:44:50;;;;;;;14.15;7.10;;;;;;;-0.97;52.78;100968.97;4997307;28;119102;-83
2021/12/26 04:47:38;;;;;;;8.27;5.30;;;;;;;-0.92;53.36;100965.19;5006599;28;122029;-82
2021/12/26 04:50:11;;;;;;;11.18;5.60;;;;;;;-0.81;53.78;100981.47;4972104;28;119277;-81
2021/12/26 04:52:45;;;;;;;7.93;5.10;;;;;;;-0.95;54.17;100955.13;4984385;28;122165;-81
2021/12/26 04:55:21;;;;;;;10.10;5.45;;;;;;;-0.80;53.93;100970.34;4974866;28;122694;-83
2021/12/26 04:57:47;;;;;;;7.50;5.22;;;;;;;-0.72;53.91;100973.88;5001554;28;119891;-81
2021/12/26 05:00:17;;;;;;;9.18;5.47;;;;;;;-0.81;53.85;100935.69;4985989;28;120808;-82
2021/12/26 05:02:45;;;;;;;11.45;5.68;;;;;;;-0.59;53.52;100972.53;5000997;28;122297;-83
2021/12/26 05:05:13;;;;;;;10.07;5.15;;;;;;;-0.62;53.40;100957.88;4988373;28;121723;-81
2021/12/26 05:07:41;;;;;;;11.45;5.95;;;;;;;-0.80;53.51;100927.25;4983966;28;122418;-83
2021/12/26 05:10:10;;;;;;;9.38;6.20;;;;;;;-0.57;53.70;100956.00;4989255;28;119097;-81
2021/12/26 05:12:36;;;;;;;9.50;5.95;;;;;;;-0.82;54.10;100915.28;4994572;28;119211;-82
2021/12/26 05:15:04;;;;;;;11.40;5.95;;;;;;;-0.51;53.77;100941.03;4986618;28;122649;-83
2021/12/26 05:17:30;;;;;;;12.13;6.97;;;;;;;-0.59;53.45;100939.41;4986995;28;119325;-80
2021/12/26 05:19:57;;;;;;;11.13;6.30;;;;;;;-0.52;52.88;100956.44;4988755;28;121068;-80
2021/12/26 05:22:22;;;;;;;10.05;6.03;;;;;;;-0.63;52.99;100940.16;4991983;28;122154;-81
2021/12/26 05:24:48;;;;;;;11.05;6.47;;;;;;;-0.72;52.73;100928.88;4987955;28;123138;-81
2021/12/26 05:27:16;;;;;;;12.68;6.25;;;;;;;-0.65;52.29;100942.44;5003301;28;118961;-82
2021/12/26 05:29:44;;;;;;;12.95;6.07;;;;;;;-0.78;51.91;100940.34;4972488;28;119165;-81
2021/12/26 05:32:10;;;;;;;8.85;6.00;;;;;;;-0.84;51.50;100939.91;4967228;28;120507;-82
2021/12/26 05:34:37;;;;;;;12.50;6.22;;;;;;;-0.76;52.48;100957.69;4995270;28;120269;-81
2021/12/26 05:37:02;;;;;;;10.27;6.10;;;;;;;-0.87;52.49;100942.56;4972082;28;120758;-84
2021/12/26 05:39:29;;;;;;;11.68;6.05;;;;;;;-0.93;52.45;100929.41;4988339;28;121331;-83
2021/12/26 05:41:54;;;;;;;9.25;5.72;;;;;;;-0.95;52.77;100925.50;4992158;28;121701;-81
2021/12/26 05:44:30;;;;;;;12.27;6.30;;;;;;;-0.94;52.84;100941.31;4995049;28;119271;-81
2021/12/26 05:46:57;;;;;;;11.55;5.93;;;;;;;-0.88;52.54;100938.31;4972017;28;122598;-82
2021/12/26 05:49:27;;;;;;;8.88;5.68;;;;;;;-1.01;52.34;100927.75;4992711;28;119318;-81
2021/12/26 05:52:11;;;;;;;11.20;5.95;;;;;;;-0.89;51.79;100951.00;4993181;28;120760;-81
2021/12/26 05:54:48;;;;;;;10.90;6.57;;;;;;;-0.96;51.87;100948.97;4962943;28;124038;-82
2021/12/26 05:57:14;;;;;;;10.50;6.45;;;;;;;-0.98;52.33;100956.63;4983114;28;119903;-83
2021/12/26 05:59:40;;;;;;;12.93;6.88;;;;;;;-1.21;52.49;100922.84;4983937;28;120331;-83
2021/12/26 06:02:06;;;;;;;11.73;6.90;;;;;;;-1.07;53.00;100944.59;4965039;28;123026;-83
2021/12/26 06:04:35;;;;;;;9.68;6.38;;;;;;;-0.99;53.45;100951.63;4984605;28;119815;-83
2021/12/26 06:07:04;;;;;;;11.00;6.88;;;;;;;-1.03;53.47;100938.13;5015247;28;119365;-83
2021/12/26 06:09:29;;;;;;;12.23;6.72;;;;;;;-0.83;53.45;100965.69;4990597;28;120405;-81
2021/12/26 06:11:55;;;;;;;11.05;6.18;;;;;;;-0.92;52.60;100951.72;5002428;28;119695;-81
2021/12/26 06:14:21;;;;;;;12.75;6.30;;;;;;;-0.91;51.97;100953.28;4958702;28;121290;-80
2021/12/26 06:16:47;;;;;;;12.48;6.35;;;;;;;-0.98;52.26;100950.47;4990586;28;119884;-79
2021/12/26 06:19:32;;;;;;;11.32;7.10;;;;;;;-1.06;52.06;100946.16;4989037;28;121830;-82
2021/12/26 06:22:27;;;;;;;13.45;7.28;;;;;;;-1.04;52.14;100950.03;4981638;28;121768;-81
2021/12/26 06:25:14;;;;;;;11.43;6.55;;;;;;;-1.04;51.89;100958.09;5011831;28;118937;-81
2021/12/26 06:27:50;;;;;;;10.73;6.60;;;;;;;-1.12;51.54;100961.06;4959737;28;120660;-83
2021/12/26 06:30:35;;;;;;;10.73;6.97;;;;;;;-1.12;51.68;100977.22;4991658;28;119247;-81
2021/12/26 06:33:16;;;;;;;12.55;6.53;;;;;;;-1.21;52.41;100974.00;5003135;28;119665;-81
2021/12/26 06:36:00;;;;;;;11.98;7.50;;;;;;;-1.26;52.28;100967.78;4991650;28;123073;-81
2021/12/26 06:39:04;;;;;;;10.70;7.57;;;;;;;-1.27;52.60;100960.84;4934312;28;119152;-81
2021/12/26 06:41:48;;;;;;;12.18;7.00;;;;;;;-1.27;52.31;100957.38;4951584;28;120845;-83
2021/12/26 06:44:33;;;;;;;10.23;6.85;;;;;;;-1.26;52.25;100962.41;4980094;28;121906;-83
2021/12/26 06:47:06;;;;;;;14.80;7.05;;;;;;;-1.27;52.55;100954.69;4996751;28;119123;-82
2021/12/26 06:49:36;;;;;;;11.30;7.65;;;;;;;-1.28;52.97;100953.16;4995252;28;124008;-81
2021/12/26 06:52:04;;;;;;;10.98;6.75;;;;;;;-1.13;53.00;100965.69;4991641;28;119220;-82
2021/12/26 06:54:30;;;;;;;11.13;6.65;;;;;;;-1.11;52.82;100962.63;5011266;28;124275;-82
2021/12/26 06:56:56;;;;;;;13.68;7.03;;;;;;;-1.12;52.83;100972.63;4999687;28;119489;-82
2021/12/26 06:59:22;;;;;;;11.32;8.25;;;;;;;-1.21;52.86;100955.16;4977431;28;119812;-83
2021/12/26 07:01:51;;;;;;;12.75;6.55;;;;;;;-1.20;52.15;100945.94;4977872;28;121697;-80
2021/12/26 07:04:18;;;;;;;13.52;6.82;;;;;;;-1.21;51.98;100947.09;4984647;28;119536;-82
2021/12/26 07:06:45;;;;;;;9.88;6.30;;;;;;;-1.25;51.54;100950.50;4972101;28;119176;-82
2021/12/26 07:09:20;;;;;;;10.70;6.53;;;;;;;-1.29;51.76;100954.28;4986389;28;120360;-81
2021/12/26 07:11:47;;;;;;;11.20;7.22;;;;;;;-1.30;52.22;100944.66;4957223;28;123326;-81
2021/12/26 07:14:27;;;;;;;11.75;8.10;;;;;;;-1.22;52.84;100954.38;4999607;28;119480;-81
2021/12/26 07:16:52;;;;;;;12.48;7.80;;;;;;;-1.25;52.66;100947.03;4955939;28;120428;-84
2021/12/26 07:19:21;;;;;;;14.48;7.72;;;;;;;-1.24;52.91;100943.97;4994357;28;119144;-83
2021/12/26 07:21:53;;;;;;;12.77;6.68;;;;;;;-1.25;51.84;100947.81;4976798;28;119857;-81
2021/12/26 07:24:18;;;;;;;11.52;6.68;;;;;;;-1.38;51.73;100946.47;4991721;28;119552;-82
2021/12/26 07:26:44;;;;;;;12.88;6.68;;;;;;;-1.31;51.41;100970.81;4969828;28;119261;-82
2021/12/26 07:29:29;;;;;;;11.82;7.50;;;;;;;-1.33;51.93;100966.91;4982415;28;121321;-83
2021/12/26 07:31:55;;;;;;;12.65;8.10;;;;;;;-1.41;52.38;100955.28;4997280;28;121377;-83
2021/12/26 07:34:21;;;;;;;10.85;7.40;;;;;;;-1.41;52.40;100949.91;5008955;28;120195;-82
2021/12/26 07:36:46;;;;;;;14.05;7.32;;;;;;;-1.40;52.10;100959.53;5019109;28;119373;-83
2021/12/26 07:39:12;;;;;;;11.05;7.22;;;;;;;-1.37;51.58;100964.19;4992025;28;119440;-83
2021/12/26 07:41:38;;;;;;;10.70;6.60;;;;;;;-1.43;51.84;100965.59;4970568;28;122103;-82
2021/12/26 07:44:06;;;;;;;11.10;6.65;;;;;;;-1.38;51.42;100980.69;4977252;28;122727;-84
2021/12/26 07:47:04;;;;;;;10.07;6.60;;;;;;;-1.50;52.03;100965.50;5008153;28;120050;-79
2021/12/26 07:49:33;;;;;;;12.70;8.00;;;;;;;-1.57;51.84;100960.03;5001707;28;119577;-83
2021/12/26 07:52:19;;;;;;;11.48;7.50;;;;;;;-1.57;52.04;100963.50;4987710;28;121855;-81
2021/12/26 07:55:05;;;;;;;11.95;7.30;;;;;;;-1.47;51.44;100972.06;4994689;28;119057;-83
2021/12/26 07:57:53;;;;;;;9.55;6.78;;;;;;;-1.53;51.38;100979.69;4985232;28;120865;-81
2021/12/26 08:00:54;;;;;;;11.50;7.18;;;;;;;-1.58;51.81;100988.06;5002065;28;121638;-81
2021/12/26 08:03:39;;;;;;;10.93;6.85;;;;;;;-1.60;51.48;101001.09;4992014;28;122068;-82
2021/12/26 08:06:20;;;;;;;10.88;7.00;;;;;;;-1.56;51.60;101007.31;4999175;28;121485;-82
2021/12/26 08:08:51;;;;;;;11.75;7.95;;;;;;;-1.50;52.04;101013.94;4973464;28;119052;-82
2021/12/26 08:11:16;;;;;;;11.93;8.10;;;;;;;-1.54;52.42;100996.97;4974618;28;120378;-82
2021/12/26 08:13:42;;;;;;;11.88;8.02;;;;;;;-1.60;52.53;100984.94;4989363;28;121385;-83
2021/12/26 08:16:08;;;;;;;12.07;7.47;;;;;;;-1.42;52.51;101002.16;4978815;28;118909;-82
2021/12/26 08:18:34;;;;;;;11.18;7.65;;;;;;;-1.39;52.59;100996.06;4973808;28;120806;-83
2021/12/26 08:21:00;;;;;;;17.20;8.70;;;;;;;-1.29;52.58;101008.88;4976291;28;121840;-83
2021/12/26 08:23:27;;;;;;;11.18;7.32;;;;;;;-1.29;52.48;100995.44;4982052;28;119299;-81
2021/12/26 08:25:53;;;;;;;13.02;8.02;;;;;;;-1.27;52.10;101003.16;5003534;28;120780;-81
2021/12/26 08:28:20;;;;;;;12.77;8.27;;;;;;;-1.18;52.62;101011.75;4993459;28;119386;-82
2021/12/26 08:30:46;;;;;;;18.63;9.05;;;;;;;-1.15;52.78;101011.03;4994562;28;120484;-81
2021/12/26 08:33:11;;;;;;;14.80;11.10;;;;;;;-1.19;52.88;100998.63;4972835;28;122672;-81
2021/12/26 08:35:40;;;;;;;16.42;11.63;;;;;;;-1.12;52.96;101007.63;4999438;28;119685;-82
2021/12/26 08:38:06;;;;;;;19.23;12.02;;;;;;;-0.99;52.88;101022.41;4997793;28;120738;-81
2021/12/26 08:40:32;;;;;;;15.90;11.63;;;;;;;-0.91;53.54;101019.84;4961378;28;123118;-81
2021/12/26 08:43:01;;;;;;;18.40;11.63;;;;;;;-0.89;54.07;101018.31;4989702;28;119602;-82
2021/12/26 08:45:27;;;;;;;15.85;11.02;;;;;;;-0.71;53.72;101027.44;4956073;28;119196;-82
2021/12/26 08:47:55;;;;;;;14.00;10.48;;;;;;;-0.65;53.36;101025.97;4993709;28;119330;-82
2021/12/26 08:50:22;;;;;;;17.23;11.43;;;;;;;-0.57;53.98;101028.75;4986696;28;121064;-82
2021/12/26 08:52:48;;;;;;;20.17;12.77;;;;;;;-0.48;54.00;101031.94;4993347;28;119159;-81
2021/12/26 08:55:15;;;;;;;18.92;12.30;;;;;;;-0.47;53.67;101017.34;4978674;28;119488;-81
2021/12/26 08:57:40;;;;;;;16.98;11.48;;;;;;;-0.32;53.92;101029.81;4987267;28;120161;-83
2021/12/26 09:00:09;;;;;;;17.42;11.02;;;;;;;-0.24;53.66;101026.06;4989527;28;121865;-82
2021/12/26 09:02:35;;;;;;;16.27;10.80;;;;;;;-0.20;53.82;101026.91;4988925;28;118326;-80
2021/12/26 09:05:01;;;;;;;15.43;9.60;;;;;;;-0.17;53.63;101020.00;4990793;28;119009;-81
2021/12/26 09:07:28;;;;;;;68.30;30.73;;;;;;;0.02;53.67;101033.31;4974240;28;122170;-82
2021/12/26 09:09:55;;;;;;;57.78;25.40;;;;;;;-0.04;54.09;101008.56;4974301;28;122690;-82
2021/12/26 09:12:22;;;;;;;402.30;120.00;;;;;;;0.11;53.95;101020.28;4987808;28;122961;-81
2021/12/26 09:14:47;;;;;;;125.53;56.13;;;;;;;0.30;54.15;101032.81;5005387;28;119268;-82
2021/12/26 09:17:13;;;;;;;37.67;23.35;;;;;;;0.28;54.34;101017.00;4973782;28;120974;-80
2021/12/26 09:19:39;;;;;;;27.08;18.13;;;;;;;0.47;53.87;101026.78;5004930;28;119255;-81
2021/12/26 09:22:08;;;;;;;23.23;14.20;;;;;;;0.52;53.67;101026.44;4987814;28;119371;-82
2021/12/26 09:24:34;;;;;;;15.70;11.30;;;;;;;0.48;53.67;101009.47;4973083;28;120516;-80
2021/12/26 09:27:00;;;;;;;19.25;11.98;;;;;;;0.54;53.47;100999.09;4975391;28;121592;-82
2021/12/26 09:29:25;;;;;;;17.52;12.77;;;;;;;0.60;54.09;101017.25;4995652;28;119060;-81
2021/12/26 09:31:51;;;;;;;22.83;13.30;;;;;;;0.66;53.62;101012.28;4966518;28;121534;-81
2021/12/26 09:34:17;;;;;;;18.25;12.00;;;;;;;0.84;53.66;101015.13;4977625;28;119205;-80
2021/12/26 09:36:44;;;;;;;14.82;10.73;;;;;;;0.81;53.78;101013.94;4991557;28;120290;-82
2021/12/26 09:39:10;;;;;;;13.50;10.05;;;;;;;0.99;54.22;101030.28;4978565;28;121551;-81
2021/12/26 09:41:39;;;;;;;16.63;11.52;;;;;;;0.88;53.93;101005.09;4992845;28;119192;-81
2021/12/26 09:44:06;;;;;;;18.67;12.43;;;;;;;0.98;53.56;101009.81;4958504;28;122696;-81
2021/12/26 09:46:32;;;;;;;20.45;13.13;;;;;;;1.13;53.43;101027.66;4991709;28;119432;-82
2021/12/26 09:48:59;;;;;;;30.35;19.80;;;;;;;1.19;53.66;101017.28;4978741;28;120077;-81
2021/12/26 09:51:26;;;;;;;18.38;13.07;;;;;;;1.25;53.51;101034.69;5007216;28;120035;-81
2021/12/26 09:53:51;;;;;;;13.70;10.07;;;;;;;1.30;53.57;101022.72;4974275;28;119281;-81
2021/12/26 09:56:18;;;;;;;14.55;10.48;;;;;;;1.26;53.04;101013.84;4987663;28;120329;-81
2021/12/26 09:59:00;;;;;;;18.88;11.93;;;;;;;1.42;53.28;101019.69;4980420;28;122520;-80
2021/12/26 10:01:34;;;;;;;32.83;20.73;;;;;;;1.46;53.36;101015.09;4987827;28;119242;-81
2021/12/26 10:04:14;;;;;;;17.15;12.05;;;;;;;1.53;53.15;101020.53;4977232;28;121134;-80
2021/12/26 10:06:40;;;;;;;18.58;11.63;;;;;;;1.46;52.96;100998.88;4995300;28;123031;-79
2021/12/26 10:09:11;;;;;;;13.32;9.27;;;;;;;1.65;53.14;101017.47;4975557;28;119308;-81
2021/12/26 10:11:40;;;;;;;15.77;10.80;;;;;;;1.66;53.44;101012.88;5021823;27;119536;-80
2021/12/26 10:14:11;;;;;;;13.90;9.20;;;;;;;1.77;53.28;101014.44;4991698;28;119241;-81
2021/12/26 10:16:45;;;;;;;12.23;9.45;;;;;;;1.72;53.29;101001.28;5004885;28;121538;-81
2021/12/26 10:19:11;;;;;;;;;;;;;;;1.83;53.35;101012.91;4975802;28;121293;-82
2021/12/26 10:21:41;;;;;;;15.82;9.30;;;;;;;1.88;53.21;101013.69;5010359;28;120209;-81
2021/12/26 10:24:12;;;;;;;12.02;9.00;;;;;;;1.84;52.55;100994.75;4997443;28;122573;-81
2021/12/26 10:26:41;;;;;;;14.27;9.10;;;;;;;1.90;52.77;101001.34;4982823;28;121610;-81
2021/12/26 10:29:19;;;;;;;20.45;11.43;;;;;;;2.02;52.89;101002.91;4967282;28;119262;-85
2021/12/26 10:31:53;;;;;;;23.83;12.60;;;;;;;2.08;52.99;101004.06;4975205;28;118816;-84
2021/12/26 10:34:31;;;;;;;20.95;10.68;;;;;;;2.12;53.14;100996.72;4956315;28;121917;-85
2021/12/26 10:36:59;;;;;;;22.45;11.23;;;;;;;2.15;52.42;100995.97;4978868;28;120959;-85
2021/12/26 10:39:30;;;;;;;26.70;14.25;;;;;;;2.16;52.41;100997.53;4981709;28;121039;-87
2021/12/26 10:42:01;;;;;;;54.67;23.08;;;;;;;2.07;52.79;100972.75;4981832;28;119372;-85
2021/12/26 10:44:52;;;;;;;72.55;31.65;;;;;;;2.25;51.75;100989.03;4951933;28;120654;-86
2021/12/26 10:47:20;;;;;;;46.90;26.40;;;;;;;2.22;52.20;100979.75;4970376;28;121226;-88
2021/12/26 10:50:06;;;;;;;39.47;23.25;;;;;;;2.45;52.49;100995.59;4980953;28;120725;-84
2021/12/26 10:52:57;;;;;;;28.35;18.25;;;;;;;2.38;53.07;100982.06;4980070;28;120891;-84
2021/12/26 10:55:30;;;;;;;20.00;12.95;;;;;;;2.49;53.21;100987.47;4978342;28;123651;-85
2021/12/26 10:57:57;;;;;;;20.90;11.88;;;;;;;2.55;52.39;100985.94;4960047;28;120132;-88
2021/12/26 11:00:24;;;;;;;14.73;8.82;;;;;;;2.66;52.38;100998.31;4974675;28;120047;-86
2021/12/26 11:02:57;;;;;;;18.23;12.02;;;;;;;2.73;53.07;100997.53;4960863;28;119665;-86
2021/12/26 11:05:38;;;;;;;12.70;8.98;;;;;;;2.79;52.75;100990.56;4986347;28;120079;-83
2021/12/26 11:08:12;;;;;;;11.88;7.32;;;;;;;2.82;51.77;100987.06;4959206;28;121510;-88
2021/12/26 11:10:38;;;;;;;8.60;6.43;;;;;;;2.85;51.93;100983.59;4996616;28;119672;-88
2021/12/26 11:13:08;;;;;;;9.85;7.28;;;;;;;2.79;50.65;100974.28;4964291;28;119404;-87
2021/12/26 11:15:40;;;;;;;12.90;8.13;;;;;;;2.83;50.98;100977.75;4975037;28;121503;-85
2021/12/26 11:18:11;;;;;;;12.73;8.07;;;;;;;2.97;52.00;100990.53;4963007;28;121598;-85
2021/12/26 11:20:43;;;;;;;11.07;7.88;;;;;;;3.01;51.73;100989.34;4952324;28;121128;-88
2021/12/26 11:23:13;;;;;;;10.15;7.43;;;;;;;2.99;51.41;100978.13;4965374;28;119438;-88
2021/12/26 11:25:51;;;;;;;18.05;11.90;;;;;;;3.07;50.03;100992.44;4964552;28;122680;-87
2021/12/26 11:28:25;;;;;;;30.95;19.30;;;;;;;3.04;49.31;100979.66;4976388;28;122900;-84
2021/12/26 11:30:53;;;;;;;25.20;16.02;;;;;;;3.10;49.02;100988.97;4973479;28;119386;-86
2021/12/26 11:33:19;;;;;;;13.80;8.65;;;;;;;3.08;48.78;100975.81;4942493;28;122340;-88